createdAt,value
2022-11-05T00:02:43.306Z,99.90
2022-11-05T00:05:33.970Z,99.90
2022-11-05T00:08:24.836Z,99.90
2022-11-05T00:10:56.929Z,99.90
2022-11-05T00:13:47.561Z,99.90
2022-11-05T00:16:37.795Z,99.90
2022-11-05T00:19:10.308Z,99.90
2022-11-05T00:22:00.493Z,99.90
2022-11-05T00:24:50.792Z,99.90
2022-11-05T00:27:22.837Z,99.90
2022-11-05T00:29:54.940Z,99.90
2022-11-05T00:32:28.215Z,99.90
2022-11-05T00:35:00.319Z,99.90
2022-11-05T00:37:32.365Z,99.90
2022-11-05T00:40:05.128Z,99.90
2022-11-05T00:42:57.906Z,99.90
2022-11-05T00:45:30.966Z,99.90
2022-11-05T00:48:21.380Z,99.90
2022-11-05T00:50:53.501Z,99.90
2022-11-05T00:53:25.474Z,99.90
2022-11-05T00:55:57.577Z,99.90
2022-11-05T00:58:29.725Z,99.90
2022-11-05T01:01:02.607Z,99.90
2022-11-05T01:03:37.437Z,99.90
2022-11-05T01:06:15.856Z,99.90
2022-11-05T01:08:47.814Z,99.90
2022-11-05T01:11:37.055Z,99.90
2022-11-05T01:14:12.935Z,99.90
2022-11-05T01:16:45.625Z,99.90
2022-11-05T01:19:17.679Z,99.90
2022-11-05T01:21:49.540Z,99.90
2022-11-05T01:24:21.497Z,99.90
2022-11-05T01:26:53.489Z,99.90
2022-11-05T01:29:25.576Z,99.90
2022-11-05T01:31:57.557Z,99.90
2022-11-05T01:34:29.653Z,99.90
2022-11-05T01:37:01.567Z,99.90
2022-11-05T01:39:33.587Z,99.90
2022-11-05T01:42:20.965Z,99.90
2022-11-05T01:44:59.771Z,99.90
2022-11-05T01:47:38.138Z,99.90
2022-11-05T01:50:22.194Z,99.90
2022-11-05T01:53:00.778Z,99.90
2022-11-05T01:55:37.384Z,99.90
2022-11-05T01:58:13.999Z,99.90
2022-11-05T02:00:46.332Z,99.90
2022-11-05T02:03:19.414Z,99.90
2022-11-05T02:05:55.882Z,99.90
2022-11-05T02:08:45.973Z,99.90
2022-11-05T02:11:19.574Z,99.90
2022-11-05T02:13:51.975Z,99.90
2022-11-05T02:16:29.870Z,99.90
2022-11-05T02:19:10.510Z,99.90
2022-11-05T02:22:06.543Z,99.90
2022-11-05T02:24:50.323Z,99.90
2022-11-05T02:27:44.066Z,99.90
2022-11-05T02:30:49.707Z,99.90
2022-11-05T02:33:57.061Z,99.90
2022-11-05T02:36:37.857Z,99.90
2022-11-05T02:39:27.638Z,99.90
2022-11-05T02:42:15.281Z,99.90
2022-11-05T02:45:20.389Z,99.90
2022-11-05T02:48:21.462Z,99.90
2022-11-05T02:51:03.154Z,99.90
2022-11-05T02:53:54.755Z,99.90
2022-11-05T02:56:32.995Z,99.90
2022-11-05T02:59:05.073Z,99.90
2022-11-05T03:01:39.702Z,99.90
2022-11-05T03:04:16.459Z,99.90
2022-11-05T03:07:03.873Z,99.90
2022-11-05T03:09:54.905Z,99.90
2022-11-05T03:12:30.635Z,99.90
2022-11-05T03:15:24.000Z,99.90
2022-11-05T03:18:20.026Z,99.90
2022-11-05T03:21:10.727Z,99.80
2022-11-05T03:23:45.558Z,99.70
2022-11-05T03:26:34.953Z,99.00
2022-11-05T03:29:12.215Z,98.70
2022-11-05T03:31:45.698Z,98.70
2022-11-05T03:34:21.641Z,98.60
2022-11-05T03:36:55.882Z,98.50
2022-11-05T03:39:42.881Z,98.10
2022-11-05T03:42:18.404Z,97.70
2022-11-05T03:44:55.461Z,97.70
2022-11-05T03:47:35.766Z,97.40
2022-11-05T03:50:16.860Z,97.10
2022-11-05T03:53:04.000Z,96.00
2022-11-05T03:55:42.582Z,95.70
2022-11-05T03:58:15.688Z,96.10
2022-11-05T04:00:49.200Z,95.90
2022-11-05T04:03:21.412Z,95.70
2022-11-05T04:06:14.692Z,95.40
2022-11-05T04:09:05.004Z,95.60
2022-11-05T04:11:55.598Z,95.20
2022-11-05T04:14:27.607Z,95.40
2022-11-05T04:17:11.610Z,95.40
2022-11-05T04:20:03.678Z,95.00
2022-11-05T04:22:55.262Z,94.80
2022-11-05T04:25:27.241Z,95.20
2022-11-05T04:28:02.673Z,95.20
2022-11-05T04:30:34.773Z,94.80
2022-11-05T04:33:12.893Z,94.40
2022-11-05T04:35:47.156Z,94.20
2022-11-05T04:38:20.212Z,94.50
2022-11-05T04:40:52.247Z,94.50
2022-11-05T04:43:24.288Z,94.50
2022-11-05T04:45:56.244Z,94.40
2022-11-05T04:48:28.190Z,94.30
2022-11-05T04:51:00.176Z,94.40
2022-11-05T04:53:32.341Z,94.50
2022-11-05T04:56:17.758Z,94.90
2022-11-05T04:58:50.210Z,95.20
2022-11-05T05:01:24.077Z,95.80
2022-11-05T05:03:56.235Z,95.70
2022-11-05T05:06:28.334Z,96.00
2022-11-05T05:09:00.271Z,96.10
2022-11-05T05:11:38.309Z,95.80
2022-11-05T05:14:23.996Z,95.70
2022-11-05T05:17:33.708Z,95.80
2022-11-05T05:20:25.261Z,95.80
2022-11-05T05:22:57.261Z,95.30
2022-11-05T05:25:29.389Z,95.30
2022-11-05T05:28:01.354Z,95.50
2022-11-05T05:30:33.242Z,95.30
2022-11-05T05:33:05.236Z,95.80
2022-11-05T05:35:37.241Z,95.60
2022-11-05T05:38:09.247Z,95.60
2022-11-05T05:40:41.262Z,95.40
2022-11-05T05:43:13.381Z,95.40
2022-11-05T05:45:45.805Z,95.30
2022-11-05T05:48:17.862Z,95.20
2022-11-05T05:50:49.854Z,95.40
2022-11-05T05:53:21.767Z,95.50
2022-11-05T05:55:54.685Z,95.40
2022-11-05T05:58:31.023Z,95.60
2022-11-05T06:01:05.590Z,96.10
2022-11-05T06:03:37.854Z,96.10
2022-11-05T06:06:13.195Z,96.20
2022-11-05T06:08:46.547Z,96.40
2022-11-05T06:11:18.508Z,96.40
2022-11-05T06:13:50.606Z,96.70
2022-11-05T06:16:22.591Z,96.60
2022-11-05T06:18:54.689Z,96.80
2022-11-05T06:21:26.656Z,96.90
2022-11-05T06:24:00.329Z,96.60
2022-11-05T06:26:32.427Z,96.60
2022-11-05T06:29:04.266Z,96.60
2022-11-05T06:31:36.346Z,96.40
2022-11-05T06:34:08.368Z,96.60
2022-11-05T06:36:40.282Z,96.70
2022-11-05T06:39:12.824Z,96.90
2022-11-05T06:42:12.021Z,96.30
2022-11-05T06:44:36.885Z,95.80
2022-11-05T06:47:08.766Z,94.90
2022-11-05T06:49:40.628Z,94.60
2022-11-05T06:52:14.476Z,93.40
2022-11-05T06:54:46.370Z,93.30
2022-11-05T06:57:18.208Z,92.40
2022-11-05T06:59:50.069Z,92.10
2022-11-05T07:02:21.992Z,92.20
2022-11-05T07:04:54.042Z,91.60
2022-11-05T07:07:25.863Z,91.60
2022-11-05T07:09:57.711Z,90.90
2022-11-05T07:12:29.567Z,90.20
2022-11-05T07:15:01.691Z,90.00
2022-11-05T07:17:33.588Z,88.50
2022-11-05T07:20:07.519Z,88.70
2022-11-05T07:22:39.421Z,88.70
2022-11-05T07:25:11.237Z,88.90
2022-11-05T07:27:43.730Z,89.30
2022-11-05T07:30:15.622Z,89.50
2022-11-05T07:32:47.469Z,88.20
2022-11-05T07:35:19.385Z,87.90
2022-11-05T07:37:54.058Z,87.00
2022-11-05T07:40:27.806Z,87.30
2022-11-05T07:43:01.310Z,87.80
2022-11-05T07:45:33.549Z,85.30
2022-11-05T07:48:06.355Z,85.10
2022-11-05T07:50:38.452Z,87.30
2022-11-05T07:53:13.340Z,87.40
2022-11-05T07:55:46.050Z,85.70
2022-11-05T07:58:18.056Z,85.00
2022-11-05T08:00:50.117Z,84.40
2022-11-05T08:03:22.299Z,84.80
2022-11-05T08:05:54.230Z,84.90
2022-11-05T08:08:26.385Z,84.80
2022-11-05T08:11:09.549Z,85.20
2022-11-05T08:13:42.776Z,84.50
2022-11-05T08:16:15.528Z,85.40
2022-11-05T08:18:48.325Z,84.40
2022-11-05T08:21:20.200Z,85.10
2022-11-05T08:23:52.045Z,83.20
2022-11-05T08:26:23.919Z,82.70
2022-11-05T08:28:55.814Z,82.50
2022-11-05T08:31:28.001Z,82.10
2022-11-05T08:34:02.595Z,82.60
2022-11-05T08:36:35.918Z,82.60
2022-11-05T08:39:10.650Z,82.00
2022-11-05T08:41:47.176Z,81.40
2022-11-05T08:44:19.030Z,80.90
2022-11-05T08:46:51.070Z,80.70
2022-11-05T08:49:22.992Z,79.50
2022-11-05T08:51:55.158Z,78.90
2022-11-05T08:54:28.513Z,75.60
2022-11-05T08:57:00.374Z,76.70
2022-11-05T08:59:32.285Z,77.00
2022-11-05T09:02:04.307Z,75.90
2022-11-05T09:04:36.282Z,76.20
2022-11-05T09:07:08.230Z,78.10
2022-11-05T09:09:40.063Z,76.60
2022-11-05T09:12:13.139Z,76.60
2022-11-05T09:14:45.273Z,76.70
2022-11-05T09:17:21.768Z,75.60
2022-11-05T09:19:54.845Z,71.30
2022-11-05T09:22:26.702Z,72.40
2022-11-05T09:24:58.547Z,69.80
2022-11-05T09:27:30.453Z,68.20
2022-11-05T09:30:02.645Z,67.40
2022-11-05T09:32:34.470Z,68.10
2022-11-05T09:35:07.210Z,66.80
2022-11-05T09:37:39.230Z,67.90
2022-11-05T09:40:17.432Z,67.60
2022-11-05T09:42:52.522Z,69.00
2022-11-05T09:45:26.882Z,70.40
2022-11-05T09:48:15.214Z,73.30
2022-11-05T09:50:48.530Z,75.40
2022-11-05T09:53:23.333Z,75.20
2022-11-05T09:55:58.841Z,71.60
2022-11-05T09:58:52.886Z,72.50
2022-11-05T10:01:30.906Z,71.70
2022-11-05T10:04:12.682Z,73.50
2022-11-05T10:06:54.641Z,71.90
2022-11-05T10:09:43.032Z,70.30
2022-11-05T10:12:30.351Z,69.40
2022-11-05T10:15:16.774Z,71.40
2022-11-05T10:17:54.453Z,69.10
2022-11-05T10:20:34.059Z,66.50
2022-11-05T10:23:12.971Z,65.10
2022-11-05T10:25:55.508Z,60.40
2022-11-05T10:28:30.328Z,59.70
2022-11-05T10:31:06.928Z,61.60
2022-11-05T10:34:01.850Z,62.70
2022-11-05T10:36:36.567Z,67.30
2022-11-05T10:39:15.048Z,70.70
2022-11-05T10:42:07.399Z,71.60
2022-11-05T10:44:51.408Z,71.80
2022-11-05T10:47:52.510Z,73.10
2022-11-05T10:50:29.658Z,75.10
2022-11-05T10:53:18.452Z,72.50
2022-11-05T10:55:51.849Z,71.80
2022-11-05T10:58:30.638Z,73.20
2022-11-05T11:01:07.049Z,75.10
2022-11-05T11:03:53.872Z,74.80
2022-11-05T11:06:31.864Z,72.60
2022-11-05T11:09:08.492Z,74.20
2022-11-05T11:11:42.782Z,75.00
2022-11-05T11:14:14.669Z,74.20
2022-11-05T11:16:50.398Z,72.90
2022-11-05T11:19:28.086Z,73.80
2022-11-05T11:22:04.216Z,74.20
2022-11-05T11:24:44.034Z,73.40
2022-11-05T11:27:21.384Z,75.40
2022-11-05T11:29:59.456Z,74.50
2022-11-05T11:32:39.779Z,74.80
2022-11-05T11:35:23.518Z,74.80
2022-11-05T11:37:57.092Z,72.10
2022-11-05T11:40:37.958Z,72.60
2022-11-05T11:43:26.561Z,73.50
2022-11-05T11:46:04.893Z,74.70
2022-11-05T11:48:40.933Z,74.30
2022-11-05T11:51:40.833Z,75.30
2022-11-05T11:54:20.915Z,76.00
2022-11-05T11:56:52.801Z,75.30
2022-11-05T11:59:53.896Z,75.70
2022-11-05T12:02:40.563Z,75.00
2022-11-05T12:05:32.758Z,75.40
2022-11-05T12:08:33.588Z,74.70
2022-11-05T12:11:25.515Z,71.10
2022-11-05T12:14:08.638Z,73.80
2022-11-05T12:17:09.000Z,74.20
2022-11-05T12:20:19.532Z,73.30
2022-11-05T12:23:13.424Z,73.50
2022-11-05T12:25:57.199Z,74.00
2022-11-05T12:29:04.680Z,75.30
2022-11-05T12:31:52.278Z,69.70
2022-11-05T12:34:40.081Z,70.40
2022-11-05T12:37:15.960Z,73.90
2022-11-05T12:39:56.919Z,74.80
2022-11-05T12:42:38.375Z,72.50
2022-11-05T12:45:30.651Z,76.80
2022-11-05T12:48:30.347Z,74.30
2022-11-05T12:51:07.691Z,73.80
2022-11-05T12:53:55.017Z,72.40
2022-11-05T12:56:53.105Z,70.80
2022-11-05T12:59:36.294Z,69.80
2022-11-05T13:02:29.059Z,72.70
2022-11-05T13:05:07.818Z,73.80
2022-11-05T13:07:54.066Z,75.00
2022-11-05T13:10:32.569Z,74.50
2022-11-05T13:13:16.680Z,74.70
2022-11-05T13:15:54.474Z,76.90
2022-11-05T13:18:42.822Z,79.50
2022-11-05T13:21:17.730Z,76.70
2022-11-05T13:23:52.448Z,77.30
2022-11-05T13:26:30.630Z,78.30
2022-11-05T13:29:17.925Z,77.10
2022-11-05T13:32:03.065Z,76.90
2022-11-05T13:34:37.978Z,76.90
2022-11-05T13:37:35.934Z,79.00
2022-11-05T13:40:11.152Z,79.50
2022-11-05T13:42:45.796Z,79.50
2022-11-05T13:45:20.667Z,78.80
2022-11-05T13:48:22.706Z,78.60
2022-11-05T13:51:39.291Z,79.90
2022-11-05T13:54:40.918Z,78.70
2022-11-05T13:57:28.545Z,77.50
2022-11-05T14:00:22.436Z,76.90
2022-11-05T14:03:03.854Z,77.10
2022-11-05T14:05:42.531Z,77.80
2022-11-05T14:08:21.212Z,78.70
2022-11-05T14:11:23.612Z,79.30
2022-11-05T14:13:59.681Z,79.60
2022-11-05T14:17:07.871Z,79.80
2022-11-05T14:20:12.167Z,79.80
2022-11-05T14:22:44.158Z,79.70
2022-11-05T14:25:18.927Z,78.40
2022-11-05T14:27:53.969Z,77.20
2022-11-05T14:30:43.436Z,76.90
2022-11-05T14:33:33.048Z,79.60
2022-11-05T14:36:30.892Z,79.10
2022-11-05T14:39:24.507Z,81.60
2022-11-05T14:42:18.293Z,82.00
2022-11-05T14:45:01.826Z,83.20
2022-11-05T14:47:42.122Z,83.10
2022-11-05T14:50:29.577Z,85.40
2022-11-05T14:53:30.140Z,85.80
2022-11-05T14:56:07.989Z,85.70
2022-11-05T14:58:41.674Z,86.00
2022-11-05T15:01:13.512Z,86.50
2022-11-05T15:04:17.472Z,87.30
2022-11-05T15:07:04.812Z,89.40
2022-11-05T15:10:03.259Z,90.40
2022-11-05T15:12:41.741Z,90.70
2022-11-05T15:15:21.467Z,90.80
2022-11-05T15:18:00.644Z,91.20
2022-11-05T15:20:50.146Z,91.40
2022-11-05T15:23:26.466Z,91.90
2022-11-05T15:26:35.282Z,92.10
2022-11-05T15:29:18.330Z,92.60
2022-11-05T15:31:51.102Z,93.30
2022-11-05T15:34:25.954Z,93.60
2022-11-05T15:37:25.383Z,93.90
2022-11-05T15:39:57.693Z,94.50
2022-11-05T15:42:29.876Z,94.40
2022-11-05T15:45:01.979Z,94.50
2022-11-05T15:47:37.135Z,94.60
2022-11-05T15:50:15.396Z,95.00
2022-11-05T15:52:53.919Z,95.30
2022-11-05T15:55:26.441Z,95.90
2022-11-05T15:58:07.551Z,96.70
2022-11-05T16:00:47.208Z,97.60
2022-11-05T16:03:31.390Z,98.20
2022-11-05T16:06:08.239Z,98.10
2022-11-05T16:08:48.600Z,98.30
2022-11-05T16:11:23.270Z,98.80
2022-11-05T16:14:15.159Z,99.60
2022-11-05T16:16:48.283Z,99.50
2022-11-05T16:19:40.760Z,99.70
2022-11-05T16:22:17.534Z,99.90
2022-11-05T16:24:50.102Z,99.90
2022-11-05T16:27:22.827Z,99.90
2022-11-05T16:29:57.334Z,99.90
2022-11-05T16:32:31.706Z,99.90
2022-11-05T16:35:06.392Z,99.90
2022-11-05T16:37:41.178Z,99.90
2022-11-05T16:40:24.724Z,99.90
2022-11-05T16:43:17.037Z,99.90
2022-11-05T16:45:49.273Z,99.90
2022-11-05T16:48:21.474Z,99.90
2022-11-05T16:50:53.875Z,99.90
2022-11-05T16:53:25.769Z,99.90
2022-11-05T16:56:00.487Z,99.90
2022-11-05T16:58:32.676Z,99.90
2022-11-05T17:01:10.127Z,99.90
2022-11-05T17:03:44.778Z,99.90
2022-11-05T17:06:18.174Z,99.90
2022-11-05T17:08:50.041Z,99.90
2022-11-05T17:11:22.032Z,99.90
2022-11-05T17:13:53.939Z,99.90
2022-11-05T17:16:26.795Z,99.90
2022-11-05T17:18:58.674Z,99.90
2022-11-05T17:21:30.771Z,99.90
2022-11-05T17:24:03.339Z,99.90
2022-11-05T17:26:35.695Z,99.90
2022-11-05T17:29:07.599Z,99.90
2022-11-05T17:31:40.756Z,99.90
2022-11-05T17:34:12.921Z,99.90
2022-11-05T17:36:44.882Z,99.90
2022-11-05T17:39:16.792Z,99.90
2022-11-05T17:41:48.911Z,99.90
2022-11-05T17:44:20.807Z,99.90
2022-11-05T17:46:52.710Z,99.90
2022-11-05T17:49:24.597Z,99.90
2022-11-05T17:51:56.481Z,99.90
2022-11-05T17:54:28.329Z,99.90
2022-11-05T17:57:00.225Z,99.90
2022-11-05T17:59:32.679Z,99.90
2022-11-05T18:02:05.004Z,99.90
2022-11-05T18:04:37.491Z,99.90
2022-11-05T18:07:09.425Z,99.90
2022-11-05T18:09:41.880Z,99.90
2022-11-05T18:12:13.777Z,99.90
2022-11-05T18:14:45.714Z,99.90
2022-11-05T18:17:17.647Z,99.90
2022-11-05T18:19:49.645Z,99.90
2022-11-05T18:22:23.072Z,99.90
2022-11-05T18:24:54.989Z,99.90
2022-11-05T18:27:27.783Z,99.90
2022-11-05T18:29:59.760Z,99.90
2022-11-05T18:32:31.699Z,99.90
2022-11-05T18:35:04.087Z,99.90
2022-11-05T18:37:38.895Z,99.90
2022-11-05T18:40:11.668Z,99.90
2022-11-05T18:42:43.671Z,99.90
2022-11-05T18:45:15.694Z,99.90
2022-11-05T18:47:47.704Z,99.90
2022-11-05T18:50:19.732Z,99.90
2022-11-05T18:52:51.586Z,99.90
2022-11-05T18:55:24.528Z,99.90
2022-11-05T18:57:56.468Z,99.90
2022-11-05T19:00:28.374Z,99.90
2022-11-05T19:03:00.392Z,99.90
2022-11-05T19:05:32.971Z,99.90
2022-11-05T19:08:04.965Z,99.90
2022-11-05T19:10:40.558Z,99.90
2022-11-05T19:13:12.375Z,99.90
2022-11-05T19:15:44.316Z,99.90
2022-11-05T19:18:16.208Z,99.90
2022-11-05T19:20:48.083Z,99.90
2022-11-05T19:23:19.938Z,99.90
2022-11-05T19:25:51.831Z,99.90
2022-11-05T19:28:23.740Z,99.90
2022-11-05T19:30:55.608Z,99.90
2022-11-05T19:33:29.795Z,99.90
2022-11-05T19:36:06.387Z,99.90
2022-11-05T19:38:38.626Z,99.90
2022-11-05T19:41:14.130Z,99.90
2022-11-05T19:43:46.708Z,99.90
2022-11-05T19:46:20.325Z,99.90
2022-11-05T19:48:54.169Z,99.90
2022-11-05T19:51:28.821Z,99.90
2022-11-05T19:54:02.455Z,99.90
2022-11-05T19:56:36.697Z,99.90
2022-11-05T19:59:08.770Z,99.90
2022-11-05T20:01:40.715Z,99.90
2022-11-05T20:04:12.985Z,99.90
2022-11-05T20:06:45.020Z,99.90
2022-11-05T20:09:22.118Z,99.90
2022-11-05T20:11:56.385Z,99.90
2022-11-05T20:14:29.683Z,99.90
2022-11-05T20:17:01.580Z,99.90
2022-11-05T20:19:33.768Z,99.90
2022-11-05T20:22:05.724Z,99.90
2022-11-05T20:24:37.710Z,99.90
2022-11-05T20:27:09.647Z,99.90
2022-11-05T20:29:41.690Z,99.90
2022-11-05T20:32:14.302Z,99.90
2022-11-05T20:34:46.169Z,99.90
2022-11-05T20:37:18.026Z,99.90
2022-11-05T20:39:49.832Z,99.90
2022-11-05T20:42:21.683Z,99.90
2022-11-05T20:44:53.572Z,99.90
2022-11-05T20:47:25.454Z,99.90
2022-11-05T20:49:58.448Z,99.90
2022-11-05T20:52:30.381Z,99.90
2022-11-05T20:55:03.261Z,99.90
2022-11-05T20:57:37.033Z,99.90
2022-11-05T21:00:09.471Z,99.90
2022-11-05T21:02:41.881Z,99.90
2022-11-05T21:05:13.944Z,99.90
2022-11-05T21:07:45.828Z,99.90
2022-11-05T21:10:17.889Z,99.90
2022-11-05T21:12:49.857Z,99.90
2022-11-05T21:15:23.194Z,99.90
2022-11-05T21:17:55.029Z,99.90
2022-11-05T21:20:27.054Z,99.90
2022-11-05T21:22:59.025Z,99.90
2022-11-05T21:25:30.943Z,99.90
2022-11-05T21:28:03.054Z,99.90
2022-11-05T21:30:37.693Z,99.90
2022-11-05T21:33:09.585Z,99.90
2022-11-05T21:35:46.704Z,99.90
2022-11-05T21:38:18.628Z,99.90
2022-11-05T21:40:50.441Z,99.90
2022-11-05T21:43:22.317Z,99.90
2022-11-05T21:45:54.183Z,99.90
2022-11-05T21:48:26.049Z,99.90
2022-11-05T21:51:16.353Z,99.90
2022-11-05T21:54:06.617Z,99.90
2022-11-05T21:56:56.833Z,99.90
2022-11-05T21:59:51.801Z,99.90
2022-11-05T22:02:26.521Z,99.90
2022-11-05T22:05:00.033Z,99.90
2022-11-05T22:07:36.527Z,99.90
2022-11-05T22:10:15.879Z,99.90
2022-11-05T22:12:48.558Z,99.90
2022-11-05T22:15:20.742Z,99.90
2022-11-05T22:17:52.734Z,99.90
2022-11-05T22:20:24.588Z,99.90
2022-11-05T22:22:56.806Z,99.90
2022-11-05T22:25:28.744Z,99.90
2022-11-05T22:28:00.671Z,99.90
2022-11-05T22:30:34.622Z,99.90
2022-11-05T22:33:06.543Z,99.90
2022-11-05T22:35:39.454Z,99.90
2022-11-05T22:38:12.794Z,99.90
2022-11-05T22:40:45.098Z,99.90
2022-11-05T22:43:16.913Z,99.90
2022-11-05T22:45:48.957Z,99.90
2022-11-05T22:48:20.810Z,99.90
2022-11-05T22:50:53.584Z,99.90
2022-11-05T22:53:25.785Z,99.90
2022-11-05T22:55:57.902Z,99.90
2022-11-05T22:58:29.876Z,99.90
2022-11-05T23:01:02.665Z,99.90
2022-11-05T23:03:34.817Z,99.90
2022-11-05T23:06:35.019Z,99.90
2022-11-05T23:09:39.780Z,99.90
2022-11-05T23:12:39.738Z,99.90
2022-11-05T23:15:31.943Z,99.90
2022-11-05T23:18:22.587Z,99.90
2022-11-05T23:21:12.723Z,99.90
2022-11-05T23:24:03.011Z,99.90
2022-11-05T23:26:51.587Z,99.90
2022-11-05T23:29:25.492Z,99.90
2022-11-05T23:32:15.984Z,99.90
2022-11-05T23:34:48.002Z,99.90
2022-11-05T23:37:39.732Z,99.90
2022-11-05T23:40:16.185Z,99.90
2022-11-05T23:43:06.945Z,99.90
2022-11-05T23:46:00.197Z,99.90
2022-11-05T23:48:37.665Z,99.90
2022-11-05T23:51:12.276Z,99.90
2022-11-05T23:53:44.182Z,99.90
2022-11-05T23:56:16.563Z,99.90
2022-11-05T23:58:48.653Z,99.80
